Terminal Aerodrome Forecast
Issued by NWS

Home | Current Version | Previous Version | Text Only | Print | Product List | Glossary On
Versions: 1 2 3 4 5 6 7 8 9 10 11 12 13 14 15 16 17 18 19 20 21 22
000
FTUS43 KDLH 182323
TAFHIB
TAF
KHIB 182323Z 1900/1924 30013G19KT P6SM -SN OVC024
     FM190300 31011KT P6SM -SN BKN025
     FM190500 31009KT P6SM SCT025
     FM191400 27005KT P6SM VCSH BKN050
     FM191900 23006KT P6SM VCSH SCT020 BKN040
     FM192200 23006KT P6SM BKN080=

USA.gov is the U.S. government's official web portal to all federal, state and local government web resources and services.